Time;durP1;ratioP1;P1;durP2;ratioP2;P2;SDS_P1;SDS_P2;PMS_P1;PMS_P2;Temp;Humidity;BMP_temperature;BMP_pressure;BME280_temperature;BME280_humidity;BME280_pressure;Samples;Min_cycle;Max_cycle;Signal;HPM_P1;HPM_P2
2023/10/13 00:00:47;;;;;;;9.38;4.15;;;18.40;76.30;;;;;;7598709;19;20022;-75
2023/10/13 00:03:21;;;;;;;11.02;3.53;;;18.30;76.10;;;;;;7593645;19;20030;-76
2023/10/13 00:06:12;;;;;;;11.75;4.32;;;18.30;76.40;;;;;;7596075;19;20010;-77
2023/10/13 00:09:04;;;;;;;14.77;4.50;;;18.20;76.70;;;;;;7594967;19;20006;-77
2023/10/13 00:11:56;;;;;;;13.85;3.95;;;18.10;77.20;;;;;;7597857;19;20014;-77
2023/10/13 00:14:33;;;;;;;7.07;3.85;;;18.00;77.10;;;;;;7603280;19;20032;-77
2023/10/13 00:17:15;;;;;;;8.57;3.58;;;18.00;77.20;;;;;;7606681;19;20368;-77
2023/10/13 00:19:51;;;;;;;14.77;4.50;;;17.90;77.50;;;;;;7606131;19;20021;-77
2023/10/13 00:22:25;;;;;;;13.52;4.28;;;17.90;77.80;;;;;;7601806;19;21102;-77
2023/10/13 00:25:03;;;;;;;12.00;3.58;;;17.90;77.70;;;;;;7603374;19;20014;-77
2023/10/13 00:27:41;;;;;;;8.18;3.90;;;17.80;78.00;;;;;;7603554;19;20022;-77
2023/10/13 00:32:56;;;;;;;7.32;4.25;;;17.60;79.00;;;;;;7607001;19;20049;-77
2023/10/13 00:35:35;;;;;;;11.95;3.78;;;17.60;79.00;;;;;;7605258;19;20050;-77
2023/10/13 00:38:14;;;;;;;13.07;4.28;;;17.60;78.80;;;;;;7601095;19;20029;-77
2023/10/13 00:40:53;;;;;;;9.38;4.40;;;17.60;78.80;;;;;;7601343;19;20010;-76
2023/10/13 00:46:07;;;;;;;9.48;4.28;;;17.60;79.00;;;;;;7597673;19;20014;-77
2023/10/13 00:48:51;;;;;;;10.13;3.97;;;17.60;79.10;;;;;;7595761;19;20026;-77
2023/10/13 00:51:47;;;;;;;9.25;3.78;;;17.60;79.60;;;;;;7593631;19;20023;-77
2023/10/13 00:54:26;;;;;;;9.65;3.78;;;17.60;79.40;;;;;;7597148;19;20023;-77
2023/10/13 00:57:11;;;;;;;10.48;4.32;;;17.50;79.50;;;;;;7600943;19;20964;-77
2023/10/13 00:59:47;;;;;;;13.90;4.22;;;17.50;79.30;;;;;;7600106;19;20014;-77
2023/10/13 01:02:37;;;;;;;10.13;4.38;;;17.50;79.60;;;;;;7599501;19;20037;-76
2023/10/13 01:05:11;;;;;;;12.40;4.00;;;17.40;79.40;;;;;;7599991;19;20018;-77
2023/10/13 01:07:44;;;;;;;7.75;4.30;;;17.40;79.40;;;;;;7601942;19;20055;-77
2023/10/13 01:10:16;;;;;;;14.15;4.32;;;17.40;79.60;;;;;;7601157;19;20010;-77
2023/10/13 01:12:52;;;;;;;9.77;4.25;;;17.40;79.90;;;;;;7607070;19;20018;-77
2023/10/13 01:15:29;;;;;;;13.57;3.92;;;17.30;79.90;;;;;;7601715;19;20044;-77
2023/10/13 01:18:13;;;;;;;13.63;3.72;;;17.20;79.90;;;;;;7601263;19;20521;-77
2023/10/13 01:20:52;;;;;;;14.73;4.57;;;17.20;80.20;;;;;;7608236;19;20036;-77
2023/10/13 01:23:28;;;;;;;11.60;3.20;;;17.10;80.20;;;;;;7605731;19;20098;-77
2023/10/13 01:26:05;;;;;;;11.30;4.10;;;17.00;80.30;;;;;;7603848;19;20021;-77
2023/10/13 01:28:44;;;;;;;11.73;4.38;;;16.90;80.50;;;;;;7602037;19;20029;-76
2023/10/13 01:31:29;;;;;;;6.38;3.65;;;16.90;80.80;;;;;;7604727;19;20017;-77
2023/10/13 01:34:03;;;;;;;10.73;3.78;;;16.80;80.70;;;;;;7606771;19;20010;-77
2023/10/13 01:36:36;;;;;;;7.32;3.95;;;16.70;81.10;;;;;;7595358;19;20014;-77
2023/10/13 01:39:10;;;;;;;13.38;3.55;;;16.80;80.80;;;;;;7608214;19;20010;-77
2023/10/13 01:41:43;;;;;;;11.23;3.58;;;16.70;80.90;;;;;;7614688;19;20010;-77
2023/10/13 01:44:17;;;;;;;9.98;3.75;;;16.80;80.80;;;;;;7617681;19;20006;-77
2023/10/13 01:46:51;;;;;;;11.27;4.25;;;16.80;80.80;;;;;;7613559;19;20521;-76
2023/10/13 01:49:23;;;;;;;9.95;3.70;;;16.80;80.60;;;;;;7621386;19;20021;-77
2023/10/13 01:51:56;;;;;;;7.28;3.63;;;16.80;80.50;;;;;;7613788;19;20595;-77
2023/10/13 01:54:28;;;;;;;8.85;3.13;;;16.80;80.60;;;;;;7616062;19;20019;-76
2023/10/13 01:57:03;;;;;;;10.68;3.70;;;16.70;80.40;;;;;;7609654;19;20118;-76
2023/10/13 01:59:43;;;;;;;7.93;3.55;;;16.70;80.90;;;;;;7613079;19;20669;-77
2023/10/13 02:02:28;;;;;;;7.70;4.13;;;16.50;81.20;;;;;;7585882;19;21187;-77
2023/10/13 02:05:02;;;;;;;11.18;3.92;;;16.50;82.20;;;;;;7585788;19;20025;-77
2023/10/13 02:07:38;;;;;;;13.85;4.10;;;16.50;82.00;;;;;;7583984;19;20026;-77
2023/10/13 02:10:12;;;;;;;11.10;4.00;;;16.50;81.80;;;;;;7582169;19;20018;-77
2023/10/13 02:12:46;;;;;;;7.97;3.90;;;16.60;81.60;;;;;;7586414;19;20021;-77
2023/10/13 02:15:22;;;;;;;10.25;4.10;;;16.50;82.00;;;;;;7589796;19;20039;-77
2023/10/13 02:17:54;;;;;;;11.10;4.22;;;16.50;81.60;;;;;;7579742;19;20017;-77
2023/10/13 02:20:41;;;;;;;10.43;3.50;;;16.40;83.40;;;;;;7593977;19;20018;-77
2023/10/13 02:23:13;;;;;;;14.13;4.00;;;16.40;83.90;;;;;;7585452;19;20026;-75
2023/10/13 02:25:46;;;;;;;7.75;4.00;;;16.20;86.40;;;;;;7582715;19;20045;-75
2023/10/13 02:28:27;;;;;;;12.90;4.65;;;16.10;85.80;;;;;;7585334;19;20029;-75
2023/10/13 02:31:04;;;;;;;12.23;4.07;;;16.10;85.20;;;;;;7581289;19;20021;-75
2023/10/13 02:33:44;;;;;;;12.10;3.40;;;16.20;84.70;;;;;;7589693;19;20060;-74
2023/10/13 02:36:22;;;;;;;14.73;3.92;;;16.30;85.10;;;;;;7595010;19;20106;-75
2023/10/13 02:38:57;;;;;;;13.27;4.53;;;16.20;84.30;;;;;;7581882;19;20018;-75
2023/10/13 02:41:30;;;;;;;11.35;4.00;;;16.20;84.10;;;;;;7589759;19;20025;-77
2023/10/13 02:44:05;;;;;;;13.60;4.32;;;16.10;86.10;;;;;;7583647;19;20036;-77
2023/10/13 02:46:39;;;;;;;10.13;4.63;;;16.00;87.20;;;;;;7577895;19;20018;-77
2023/10/13 02:49:13;;;;;;;15.77;4.20;;;15.90;87.50;;;;;;7580674;19;20018;-76
2023/10/13 02:51:46;;;;;;;;;;;15.70;89.10;;;;;;7570492;19;20400;-73
2023/10/13 02:54:19;;;;;;;13.13;3.97;;;15.60;89.90;;;;;;7555688;19;19930;-76
2023/10/13 02:56:59;;;;;;;13.75;4.10;;;15.50;90.00;;;;;;7574704;19;20085;-76
2023/10/13 02:59:39;;;;;;;10.82;3.67;;;15.50;90.30;;;;;;7578554;19;20018;-77
2023/10/13 03:02:29;;;;;;;9.88;4.28;;;15.40;90.60;;;;;;7577799;19;20089;-76
2023/10/13 03:05:13;;;;;;;16.27;4.32;;;15.30;90.60;;;;;;7581727;19;20064;-76
2023/10/13 03:07:46;;;;;;;;;;;15.30;90.00;;;;;;7589579;19;20617;-75
2023/10/13 03:10:19;;;;;;;13.63;3.88;;;15.30;90.70;;;;;;7586263;19;19929;-77
2023/10/13 03:12:53;;;;;;;11.77;3.80;;;15.20;91.00;;;;;;7594908;19;20018;-78
2023/10/13 03:15:30;;;;;;;10.18;3.85;;;15.20;90.60;;;;;;7599268;19;20385;-76
2023/10/13 03:18:02;;;;;;;9.88;4.13;;;15.20;90.10;;;;;;7583443;19;20469;-76
2023/10/13 03:20:41;;;;;;;12.13;3.77;;;15.20;90.20;;;;;;7593548;19;20641;-76
2023/10/13 03:23:14;;;;;;;8.75;3.92;;;15.20;90.60;;;;;;7584977;19;20054;-76
2023/10/13 03:25:49;;;;;;;11.07;3.88;;;15.20;90.60;;;;;;7598431;19;20625;-75
2023/10/13 03:28:33;;;;;;;12.85;4.45;;;15.30;89.80;;;;;;7588666;19;20544;-76
2023/10/13 03:31:07;;;;;;;7.70;4.25;;;15.30;89.00;;;;;;7594787;19;21374;-76
2023/10/13 03:33:44;;;;;;;12.35;4.65;;;15.20;90.70;;;;;;7587031;19;20007;-75
2023/10/13 03:36:44;;;;;;;7.13;3.90;;;15.20;90.10;;;;;;7593866;19;20014;-76
2023/10/13 03:39:11;;;;;;;9.43;4.18;;;15.20;90.00;;;;;;7592842;19;20011;-76
2023/10/13 03:41:45;;;;;;;10.05;4.18;;;15.20;89.00;;;;;;7598921;19;20023;-77
2023/10/13 03:44:17;;;;;;;7.15;4.03;;;15.10;90.10;;;;;;7596075;19;20672;-77
2023/10/13 03:46:54;;;;;;;14.90;4.27;;;15.00;89.10;;;;;;7594933;19;20673;-76
2023/10/13 03:49:26;;;;;;;12.60;4.63;;;15.10;88.00;;;;;;7589216;19;20019;-77
2023/10/13 03:52:01;;;;;;;11.63;3.53;;;15.10;88.10;;;;;;7587577;19;20019;-77
2023/10/13 03:54:35;;;;;;;9.07;3.92;;;15.10;87.50;;;;;;7595473;19;20029;-75
2023/10/13 03:57:13;;;;;;;13.25;4.40;;;15.10;88.00;;;;;;7593179;19;20022;-75
2023/10/13 03:59:48;;;;;;;14.60;4.30;;;15.00;87.70;;;;;;7592770;19;20624;-75
2023/10/13 04:02:21;;;;;;;;;;;15.00;87.20;;;;;;7591766;19;20050;-76
2023/10/13 04:04:56;;;;;;;8.70;3.75;;;15.00;86.70;;;;;;7597749;19;20246;-76
2023/10/13 04:08:09;;;;;;;10.88;3.95;;;15.00;86.30;;;;;;7589647;19;20086;-76
2023/10/13 04:16:34;;;;;;;12.63;4.30;;;14.70;88.30;;;;;;7596182;19;20605;-75
2023/10/13 04:21:39;;;;;;;8.27;3.70;;;14.40;89.50;;;;;;7590967;19;20450;-75
2023/10/13 04:32:29;;;;;;;13.32;4.20;;;14.30;89.50;;;;;;7581779;19;20055;-75
2023/10/13 04:37:58;;;;;;;16.23;4.32;;;14.40;89.80;;;;;;7585307;19;20130;-77
2023/10/13 04:40:35;;;;;;;12.13;4.15;;;14.40;89.80;;;;;;7581714;19;20045;-77
2023/10/13 04:43:33;;;;;;;12.07;4.00;;;14.20;91.10;;;;;;7582659;19;20010;-77
2023/10/13 04:46:25;;;;;;;8.68;3.78;;;14.30;88.80;;;;;;7571678;19;20593;-77
2023/10/13 04:49:00;;;;;;;12.10;4.28;;;14.30;88.20;;;;;;7590012;19;20022;-77
2023/10/13 04:51:58;;;;;;;13.75;4.20;;;14.30;88.50;;;;;;7577879;19;20022;-77
2023/10/13 04:54:45;;;;;;;15.52;4.30;;;14.10;88.50;;;;;;7580967;19;20022;-77
2023/10/13 05:06:10;;;;;;;12.98;4.20;;;13.80;90.00;;;;;;7577184;19;20018;-76
2023/10/13 05:44:33;;;;;;;12.85;4.82;;;13.70;90.10;;;;;;7601875;19;20066;-75
2023/10/13 06:29:56;;;;;;;12.93;4.50;;;14.20;90.10;;;;;;7607554;19;20064;-74
2023/10/13 06:32:28;;;;;;;15.23;4.55;;;14.30;89.90;;;;;;7611485;19;20058;-76
2023/10/13 06:35:06;;;;;;;18.55;4.97;;;14.30;89.70;;;;;;7609643;19;20054;-76
2023/10/13 06:37:41;;;;;;;28.45;5.97;;;14.40;89.10;;;;;;7607489;19;20476;-75
2023/10/13 06:40:25;;;;;;;21.20;5.38;;;14.50;88.90;;;;;;7612767;19;20501;-75
2023/10/13 06:46:04;;;;;;;22.42;4.85;;;14.70;88.50;;;;;;7614492;19;20354;-76
2023/10/13 06:48:40;;;;;;;16.00;4.30;;;14.80;88.60;;;;;;7625402;19;20018;-75
2023/10/13 06:51:18;;;;;;;14.10;4.88;;;14.90;88.70;;;;;;7616912;19;20010;-75
2023/10/13 06:53:56;;;;;;;28.25;5.95;;;14.90;88.60;;;;;;7600472;19;20371;-75
2023/10/13 06:56:29;;;;;;;15.45;4.68;;;15.00;88.40;;;;;;7604475;19;20015;-75
2023/10/13 06:59:04;;;;;;;23.63;5.13;;;15.10;88.40;;;;;;7609137;19;20010;-75
2023/10/13 07:01:41;;;;;;;31.23;5.13;;;15.30;87.90;;;;;;7602572;19;20023;-75
2023/10/13 07:04:13;;;;;;;17.02;4.55;;;15.40;87.90;;;;;;7602779;19;20050;-74
2023/10/13 07:06:49;;;;;;;19.67;4.25;;;15.50;87.30;;;;;;7604042;19;20022;-75
2023/10/13 07:09:58;;;;;;;13.85;4.10;;;15.70;86.60;;;;;;7604202;19;20014;-75
2023/10/13 07:12:31;;;;;;;15.98;4.38;;;15.80;87.70;;;;;;7604133;19;20793;-74
2023/10/13 07:15:10;;;;;;;15.13;4.50;;;16.00;85.70;;;;;;7610812;19;20018;-75
2023/10/13 07:17:44;;;;;;;12.32;4.05;;;16.20;85.60;;;;;;7582113;19;20018;-74
2023/10/13 07:20:32;;;;;;;;;;;16.30;85.90;;;;;;7607468;19;20541;-75
2023/10/13 07:23:06;;;;;;;18.05;4.10;;;16.40;85.70;;;;;;7607656;19;20456;-74
2023/10/13 07:25:40;;;;;;;;;;;16.50;85.00;;;;;;7604962;19;20016;-76
2023/10/13 07:28:15;;;;;;;16.23;4.40;;;16.70;84.20;;;;;;7603281;19;19934;-74
2023/10/13 07:30:49;;;;;;;16.15;3.80;;;16.80;83.70;;;;;;7600184;19;20026;-75
2023/10/13 07:33:21;;;;;;;13.30;3.97;;;17.00;83.00;;;;;;7603366;19;20045;-74
2023/10/13 07:36:15;;;;;;;12.57;3.95;;;17.20;83.10;;;;;;7600730;19;20360;-75
2023/10/13 07:39:20;;;;;;;16.92;4.65;;;17.40;81.10;;;;;;7604158;19;20026;-73
2023/10/13 07:41:55;;;;;;;13.65;3.88;;;17.50;81.60;;;;;;7605344;19;20386;-77
2023/10/13 07:44:31;;;;;;;14.77;4.18;;;17.60;81.20;;;;;;7599932;19;20047;-77
2023/10/13 07:47:04;;;;;;;22.23;4.60;;;17.70;81.70;;;;;;7604676;19;20059;-75
2023/10/13 07:49:39;;;;;;;9.45;3.65;;;17.80;81.50;;;;;;7600840;19;21661;-75
2023/10/13 07:55:20;;;;;;;16.05;4.55;;;18.20;79.40;;;;;;7597481;19;20019;-75
2023/10/13 07:57:53;;;;;;;17.50;5.15;;;18.30;79.40;;;;;;7608417;19;20042;-76
2023/10/13 08:00:38;;;;;;;13.40;3.92;;;18.40;79.10;;;;;;7610538;19;20085;-76
2023/10/13 08:06:06;;;;;;;16.40;3.80;;;18.70;77.90;;;;;;7608722;19;20021;-76
2023/10/13 08:08:39;;;;;;;18.30;4.65;;;18.80;77.40;;;;;;7607787;19;20377;-76
2023/10/13 08:17:11;;;;;;;13.25;3.90;;;19.20;76.30;;;;;;7602236;19;20029;-73
2023/10/13 08:19:46;;;;;;;14.63;4.40;;;19.50;74.20;;;;;;7609077;19;20426;-76
2023/10/13 08:27:34;;;;;;;15.25;4.00;;;19.80;75.40;;;;;;7610411;19;20025;-76
2023/10/13 08:30:27;;;;;;;16.65;4.75;;;19.90;75.80;;;;;;7610124;19;20056;-74
2023/10/13 08:33:16;;;;;;;12.93;4.10;;;20.10;73.40;;;;;;7608832;19;20026;-77
2023/10/13 08:36:05;;;;;;;12.85;3.90;;;20.20;73.70;;;;;;7608572;19;20011;-74
2023/10/13 08:38:50;;;;;;;21.08;3.80;;;20.40;72.90;;;;;;7606683;19;20089;-74
2023/10/13 08:44:05;;;;;;;9.07;3.58;;;20.80;70.10;;;;;;7606192;19;20085;-75
2023/10/13 08:49:32;;;;;;;13.52;3.50;;;21.00;71.00;;;;;;7611423;19;20018;-76
2023/10/13 08:52:05;;;;;;;12.40;3.90;;;21.20;67.90;;;;;;7607745;19;20342;-73
2023/10/13 08:54:45;;;;;;;13.90;3.95;;;21.40;68.50;;;;;;7609360;19;20018;-76
2023/10/13 08:57:32;;;;;;;14.25;4.03;;;21.50;67.20;;;;;;7607344;19;20018;-74
2023/10/13 09:00:28;;;;;;;14.80;3.85;;;21.60;66.20;;;;;;7608831;19;20091;-76
2023/10/13 09:06:00;;;;;;;13.32;3.85;;;21.80;65.80;;;;;;7593566;19;20014;-73
2023/10/13 09:08:35;;;;;;;7.72;3.20;;;21.80;64.90;;;;;;7599840;19;20010;-73
2023/10/13 09:11:12;;;;;;;19.35;3.30;;;22.00;63.30;;;;;;7594300;19;20016;-74
2023/10/13 09:13:45;;;;;;;24.17;4.03;;;22.10;62.60;;;;;;7595112;19;20014;-78
2023/10/13 09:19:11;;;;;;;18.50;4.07;;;22.20;62.70;;;;;;7602430;19;20456;-75
2023/10/13 09:21:47;;;;;;;16.30;4.07;;;22.50;60.80;;;;;;7597088;19;20011;-75
2023/10/13 09:24:31;;;;;;;11.80;3.88;;;;;;;;;;7601795;19;20393;-75
2023/10/13 09:27:04;;;;;;;10.85;3.42;;;;;;;;;;7595521;19;20026;-74
2023/10/13 09:29:41;;;;;;;15.30;3.65;;;;;;;;;;7597253;19;20010;-74
2023/10/13 09:32:16;;;;;;;12.05;3.25;;;;;;;;;;7598252;19;20483;-74
2023/10/13 09:34:50;;;;;;;13.00;3.88;;;;;;;;;;7597480;19;20018;-75
2023/10/13 09:37:25;;;;;;;13.07;3.30;;;;;;;;;;7600652;19;20023;-74
2023/10/13 09:40:05;;;;;;;12.05;3.65;;;;;;;;;;7592723;19;20019;-74
2023/10/13 09:42:40;;;;;;;16.65;3.83;;;;;;;;;;7598309;19;20022;-74
2023/10/13 09:45:14;;;;;;;12.68;4.40;;;;;;;;;;7596454;19;20055;-74
2023/10/13 09:47:52;;;;;;;15.13;3.80;;;;;;;;;;7599668;19;20010;-76
2023/10/13 09:50:33;;;;;;;14.43;3.72;;;;;;;;;;7599313;19;20067;-75
2023/10/13 09:53:08;;;;;;;12.18;3.67;;;;;;;;;;7592745;19;20959;-74
2023/10/13 09:55:44;;;;;;;22.58;3.47;;;;;;;;;;7603815;19;20078;-75
2023/10/13 09:58:18;;;;;;;12.90;3.22;;;;;;;;;;7588329;19;20545;-75
2023/10/13 10:00:57;;;;;;;11.65;3.58;;;;;;;;;;7595393;19;20014;-75
2023/10/13 10:03:39;;;;;;;13.93;3.58;;;;;;;;;;7586788;19;20929;-75
2023/10/13 10:06:27;;;;;;;11.23;3.87;;;;;;;;;;7596208;19;20037;-75
2023/10/13 10:09:12;;;;;;;12.52;4.05;;;;;;;;;;7586381;19;20029;-75
2023/10/13 10:12:03;;;;;;;13.05;3.28;;;;;;;;;;7598955;19;20025;-75
2023/10/13 10:14:51;;;;;;;11.60;3.28;;;22.70;62.30;;;;;;7601868;19;20025;-76
2023/10/13 10:17:29;;;;;;;16.05;3.72;;;;;;;;;;7596040;19;20684;-75
2023/10/13 10:20:14;;;;;;;18.25;4.05;;;;;;;;;;7591528;19;20018;-76
2023/10/13 10:23:00;;;;;;;13.05;3.53;;;;;;;;;;7602116;19;20039;-75
2023/10/13 10:25:37;;;;;;;10.20;3.20;;;;;;;;;;7607352;19;20385;-76
2023/10/13 10:28:10;;;;;;;16.42;4.30;;;;;;;;;;7600771;19;20051;-76
2023/10/13 10:30:46;;;;;;;13.15;3.55;;;;;;;;;;7608683;19;20602;-76
2023/10/13 10:33:20;;;;;;;9.70;3.55;;;;;;;;;;7602313;19;20017;-76
2023/10/13 10:36:02;;;;;;;13.02;3.45;;;;;;;;;;7604336;19;20010;-75
2023/10/13 10:38:38;;;;;;;14.23;3.67;;;;;;;;;;7605205;19;20022;-75
2023/10/13 10:41:13;;;;;;;11.35;3.00;;;;;;;;;;7604582;19;21265;-75
2023/10/13 10:43:46;;;;;;;16.42;3.38;;;;;;;;;;7606693;19;20721;-74
2023/10/13 10:46:26;;;;;;;8.80;3.00;;;;;;;;;;7610287;19;20022;-75
2023/10/13 10:49:04;;;;;;;12.10;3.00;;;;;;;;;;7610886;19;20019;-74
2023/10/13 10:51:45;;;;;;;14.15;3.25;;;;;;;;;;7604981;19;20126;-74
2023/10/13 10:54:19;;;;;;;14.00;3.25;;;;;;;;;;7600280;19;20732;-76
2023/10/13 10:56:56;;;;;;;19.20;3.35;;;;;;;;;;7615566;19;20021;-75
2023/10/13 10:59:37;;;;;;;14.05;3.95;;;;;;;;;;7609235;19;20026;-75
2023/10/13 11:02:15;;;;;;;16.98;3.72;;;;;;;;;;7594427;19;20022;-75
2023/10/13 11:04:55;;;;;;;12.35;3.55;;;;;;;;;;7609147;19;20022;-75
2023/10/13 11:07:29;;;;;;;8.10;2.88;;;;;;;;;;7602034;19;20015;-75
2023/10/13 11:10:19;;;;;;;13.85;3.40;;;;;;;;;;7599619;19;20022;-75
2023/10/13 11:13:13;;;;;;;11.02;3.40;;;;;;;;;;7603465;19;20562;-75
2023/10/13 11:15:45;;;;;;;13.60;3.03;;;;;;;;;;7603435;19;20499;-75
2023/10/13 11:18:21;;;;;;;16.10;3.65;;;;;;;;;;7597282;19;20455;-75
2023/10/13 11:20:58;;;;;;;14.10;3.30;;;;;;;;;;7595053;19;20037;-74
2023/10/13 11:23:32;;;;;;;14.48;3.42;;;;;;;;;;7600242;19;20375;-76
2023/10/13 11:26:05;;;;;;;20.13;3.90;;;;;;;;;;7602150;19;20038;-74
2023/10/13 11:28:38;;;;;;;11.30;3.47;;;;;;;;;;7599702;19;20006;-76
2023/10/13 11:31:11;;;;;;;14.40;3.47;;;;;;;;;;7588074;19;20018;-74
2023/10/13 11:33:47;;;;;;;12.90;2.75;;;;;;;;;;7595890;19;20018;-76
2023/10/13 11:36:26;;;;;;;13.27;3.45;;;;;;;;;;7588542;19;20029;-74
2023/10/13 11:38:59;;;;;;;11.85;2.92;;;;;;;;;;7590652;19;20118;-74
2023/10/13 11:41:38;;;;;;;5.82;2.75;;;;;;;;;;7588573;19;20014;-75
2023/10/13 11:46:55;;;;;;;17.17;3.85;;;;;;;;;;7591587;19;20011;-75
2023/10/13 11:52:09;;;;;;;10.38;2.67;;;;;;;;;;7594152;19;20543;-74
2023/10/13 11:54:42;;;;;;;8.30;3.10;;;;;;;;;;7596379;19;20022;-74
2023/10/13 11:57:17;;;;;;;11.45;3.05;;;;;;;;;;7598620;19;20014;-75
2023/10/13 11:59:53;;;;;;;8.85;3.30;;;24.30;56.70;;;;;;7597030;19;20046;-74
2023/10/13 12:04:59;;;;;;;11.40;2.97;;;30.70;38.20;;;;;;7599326;19;20488;-76
2023/10/13 12:07:48;;;;;;;15.45;2.60;;;30.10;39.20;;;;;;7597735;19;20007;-75
2023/10/13 12:10:33;;;;;;;10.65;3.15;;;;;;;;;;7593955;19;20992;-75
2023/10/13 12:13:08;;;;;;;11.20;2.85;;;;;;;;;;7591778;19;20015;-74
2023/10/13 12:15:51;;;;;;;9.38;2.92;;;29.90;38.10;;;;;;7599942;19;20010;-76
2023/10/13 12:18:23;;;;;;;8.57;2.83;;;29.50;38.80;;;;;;7598299;19;20014;-75
2023/10/13 12:20:57;;;;;;;9.73;3.10;;;29.10;41.70;;;;;;7596639;19;20022;-75
2023/10/13 12:23:31;;;;;;;13.10;3.55;;;28.80;40.40;;;;;;7597513;19;20631;-74
2023/10/13 12:26:18;;;;;;;11.48;2.75;;;28.80;40.70;;;;;;7600627;19;20037;-75
2023/10/13 12:29:05;;;;;;;9.85;2.97;;;29.00;42.10;;;;;;7599418;19;20034;-76
2023/10/13 12:31:39;;;;;;;9.23;3.35;;;28.90;40.90;;;;;;7599595;19;20051;-75
2023/10/13 12:34:19;;;;;;;10.07;3.45;;;;;;;;;;7590320;19;20041;-74
2023/10/13 12:37:05;;;;;;;15.20;2.92;;;;;;;;;;7589678;19;20010;-74
2023/10/13 12:51:21;;;;;;;15.27;3.13;;;;;;;;;;7591704;19;20010;-73
2023/10/13 12:53:54;;;;;;;11.48;3.60;;;;;;;;;;7565227;19;20138;-74
2023/10/13 12:56:26;;;;;;;;;;;;;;;;;;7587637;19;20021;-74
2023/10/13 12:58:59;;;;;;;7.50;3.00;;;28.90;40.50;;;;;;7586143;19;19914;-72
2023/10/13 13:01:32;;;;;;;13.85;3.00;;;;;;;;;;7577948;19;20014;-74
2023/10/13 13:04:11;;;;;;;12.68;3.17;;;29.70;41.30;;;;;;7574694;19;20029;-74
2023/10/13 13:06:43;;;;;;;9.90;3.35;;;29.10;40.90;;;;;;7584992;19;20047;-74
2023/10/13 13:09:25;;;;;;;9.40;3.13;;;29.00;40.70;;;;;;7590220;19;20007;-74
2023/10/13 13:11:58;;;;;;;14.60;2.97;;;29.20;41.50;;;;;;7585733;19;20010;-74
2023/10/13 13:14:30;;;;;;;9.52;3.15;;;29.00;41.40;;;;;;7602204;19;20041;-75
2023/10/13 13:17:06;;;;;;;7.00;3.28;;;29.30;41.40;;;;;;7599737;19;20503;-73
2023/10/13 13:19:39;;;;;;;15.82;3.45;;;;;;;;;;7590669;19;20375;-73
2023/10/13 13:22:12;;;;;;;12.43;3.30;;;;;;;;;;7585450;19;20030;-74
2023/10/13 13:24:46;;;;;;;12.75;3.17;;;;;;;;;;7593926;19;20060;-74
2023/10/13 13:27:22;;;;;;;10.13;3.17;;;;;;;;;;7592993;19;20499;-74
2023/10/13 13:29:54;;;;;;;9.52;3.45;;;;;;;;;;7595313;19;20014;-73
2023/10/13 13:32:29;;;;;;;17.23;3.70;;;;;;;;;;7584993;19;20014;-73
2023/10/13 13:35:05;;;;;;;13.95;3.60;;;;;;;;;;7588585;19;20014;-75
2023/10/13 13:37:38;;;;;;;16.38;3.80;;;;;;;;;;7585008;19;20019;-74
2023/10/13 13:40:14;;;;;;;16.98;3.63;;;;;;;;;;7591071;19;20011;-74
2023/10/13 13:42:47;;;;;;;18.40;3.63;;;;;;;;;;7603947;19;20466;-74
2023/10/13 13:45:31;;;;;;;;;;;;;;;;;;7590911;19;20042;-73
2023/10/13 13:48:07;;;;;;;9.98;3.55;;;;;;;;;;7593820;19;19915;-75
2023/10/13 13:50:41;;;;;;;11.02;3.67;;;;;;;;;;7588747;19;20030;-74
2023/10/13 13:53:15;;;;;;;13.50;3.97;;;;;;;;;;7576902;19;20787;-74
2023/10/13 13:55:51;;;;;;;8.07;3.42;;;;;;;;;;7590232;19;20025;-72
2023/10/13 13:58:25;;;;;;;7.88;3.45;;;;;;;;;;7597173;19;20585;-73
2023/10/13 14:01:11;;;;;;;11.07;3.33;;;;;;;;;;7599398;19;20019;-73
2023/10/13 14:03:45;;;;;;;12.40;3.40;;;;;;;;;;7602565;19;20011;-73
2023/10/13 14:06:27;;;;;;;12.45;4.20;;;;;;;;;;7560101;19;20018;-72
2023/10/13 14:09:02;;;;;;;10.82;3.30;;;;;;;;;;7584493;19;20053;-74
2023/10/13 14:14:13;;;;;;;23.17;3.95;;;;;;;;;;7613656;19;20014;-74
2023/10/13 14:16:47;;;;;;;10.70;4.00;;;;;;;;;;7618641;19;20022;-74
2023/10/13 14:19:26;;;;;;;8.95;3.88;;;;;;;;;;7612067;19;20970;-74
2023/10/13 14:22:06;;;;;;;9.38;3.95;;;;;;;;;;7611024;19;20525;-73
2023/10/13 14:24:51;;;;;;;16.58;4.30;;;;;;;;;;7611654;19;20091;-74
2023/10/13 14:27:24;;;;;;;18.73;3.75;;;;;;;;;;7611055;19;20019;-73
2023/10/13 14:29:57;;;;;;;12.95;3.75;;;;;;;;;;7615510;19;20011;-73
2023/10/13 14:32:30;;;;;;;9.52;3.63;;;;;;;;;;7589325;19;20019;-74
2023/10/13 14:35:14;;;;;;;12.93;3.92;;;29.40;41.90;;;;;;7611218;19;20015;-74
2023/10/13 14:37:47;;;;;;;11.00;3.15;;;;;;;;;;7615191;19;20044;-73
2023/10/13 14:40:23;;;;;;;8.88;3.55;;;;;;;;;;7607544;19;20023;-73
2023/10/13 14:42:56;;;;;;;14.00;3.08;;;;;;;;;;7615687;19;20480;-73
2023/10/13 14:45:28;;;;;;;;;;;;;;;;;;7610644;19;20022;-74
2023/10/13 14:48:01;;;;;;;9.20;3.30;;;;;;;;;;7615610;19;20553;-74
2023/10/13 14:50:34;;;;;;;12.85;3.58;;;;;;;;;;7604328;19;20011;-75
2023/10/13 14:53:07;;;;;;;11.63;3.55;;;;;;;;;;7598179;19;20570;-73
2023/10/13 14:55:39;;;;;;;;;;;;;;;;;;7591562;19;20018;-75
2023/10/13 14:58:16;;;;;;;13.85;3.50;;;32.00;39.10;;;;;;7582342;19;19954;-74
2023/10/13 15:00:48;;;;;;;12.07;3.47;;;29.80;41.90;;;;;;7601811;19;20049;-75
2023/10/13 15:03:21;;;;;;;10.38;3.45;;;29.20;42.20;;;;;;7611559;19;20117;-74
2023/10/13 15:05:55;;;;;;;9.73;3.53;;;;;;;;;;7604741;19;20019;-74
2023/10/13 15:08:27;;;;;;;19.42;3.95;;;28.70;43.20;;;;;;7606002;19;20022;-74
2023/10/13 15:11:12;;;;;;;10.13;3.35;;;28.50;43.90;;;;;;7615922;19;20019;-74
2023/10/13 15:13:48;;;;;;;10.45;4.07;;;28.50;44.40;;;;;;7607262;19;20472;-74
2023/10/13 15:16:26;;;;;;;11.05;4.25;;;28.30;45.40;;;;;;7603868;19;20042;-73
2023/10/13 15:18:59;;;;;;;13.70;3.88;;;27.80;48.30;;;;;;7614263;19;20014;-74
2023/10/13 15:21:35;;;;;;;;;;;27.40;49.80;;;;;;7592930;19;20415;-73
2023/10/13 15:24:14;;;;;;;7.78;3.10;;;27.30;50.20;;;;;;7604853;19;19925;-73
2023/10/13 15:26:49;;;;;;;13.85;4.40;;;27.00;51.10;;;;;;7596595;19;20023;-73
2023/10/13 15:29:26;;;;;;;7.40;3.58;;;26.90;51.80;;;;;;7599542;19;20334;-74
2023/10/13 15:34:32;;;;;;;8.30;4.22;;;26.70;52.80;;;;;;7593624;19;20018;-74
2023/10/13 15:37:04;;;;;;;;;;;26.50;53.10;;;;;;7600205;19;20014;-73
2023/10/13 15:39:39;;;;;;;11.40;4.25;;;26.40;54.50;;;;;;7594471;19;19936;-74
2023/10/13 15:42:14;;;;;;;12.32;4.10;;;26.20;55.20;;;;;;7600914;19;20372;-73
2023/10/13 15:44:46;;;;;;;11.43;3.88;;;26.20;55.80;;;;;;7610056;19;20060;-73
2023/10/13 15:47:18;;;;;;;8.57;4.07;;;25.90;56.80;;;;;;7603919;19;20321;-73
2023/10/13 15:49:54;;;;;;;7.50;3.38;;;25.70;57.60;;;;;;7576962;19;20334;-73
2023/10/13 15:52:27;;;;;;;9.88;3.70;;;25.50;58.00;;;;;;7584719;19;21042;-71
2023/10/13 15:54:59;;;;;;;13.02;3.95;;;25.30;59.00;;;;;;7591732;19;20021;-74
2023/10/13 15:57:36;;;;;;;12.05;3.78;;;25.10;59.40;;;;;;7580781;19;20029;-72
2023/10/13 16:00:31;;;;;;;10.35;3.60;;;25.10;59.40;;;;;;7594623;19;20011;-74
2023/10/13 16:03:10;;;;;;;16.40;4.07;;;24.90;60.40;;;;;;7591598;19;20408;-73
2023/10/13 16:05:43;;;;;;;8.68;4.03;;;24.70;60.70;;;;;;7594800;19;20021;-72
2023/10/13 16:08:18;;;;;;;12.00;3.78;;;24.50;62.00;;;;;;7564942;19;20988;-74
2023/10/13 16:10:50;;;;;;;13.35;3.65;;;24.30;62.60;;;;;;7577261;19;20014;-73
2023/10/13 16:13:23;;;;;;;6.32;3.53;;;24.20;63.40;;;;;;7576383;19;20018;-72
2023/10/13 16:15:55;;;;;;;20.77;4.18;;;24.10;64.70;;;;;;7588963;19;20017;-73
2023/10/13 16:18:29;;;;;;;6.32;3.60;;;23.90;64.80;;;;;;7614920;19;20022;-72
2023/10/13 16:21:03;;;;;;;10.48;4.00;;;23.70;66.00;;;;;;7623493;19;20654;-73
2023/10/13 16:23:35;;;;;;;10.50;4.03;;;23.50;67.40;;;;;;7618397;19;20830;-72
2023/10/13 16:26:08;;;;;;;10.40;3.55;;;23.40;68.00;;;;;;7625597;19;20026;-73
2023/10/13 16:28:41;;;;;;;;;;;23.30;68.90;;;;;;7622026;19;20843;-73
2023/10/13 16:31:13;;;;;;;10.93;3.92;;;23.00;70.20;;;;;;7628709;19;19943;-72
2023/10/13 16:33:45;;;;;;;10.07;3.67;;;22.70;70.70;;;;;;7620201;19;20959;-74
2023/10/13 16:36:21;;;;;;;12.00;4.13;;;22.50;70.90;;;;;;7628495;19;20042;-74
2023/10/13 16:38:57;;;;;;;10.23;3.80;;;22.30;72.50;;;;;;7611623;19;20060;-74
2023/10/13 16:41:30;;;;;;;14.75;3.92;;;22.10;73.30;;;;;;7608563;19;20034;-75
2023/10/13 16:44:09;;;;;;;10.23;4.30;;;21.90;73.40;;;;;;7609740;19;20015;-73
2023/10/13 16:46:41;;;;;;;12.23;4.13;;;21.80;73.70;;;;;;7607889;19;20018;-73
2023/10/13 16:49:14;;;;;;;8.23;3.90;;;21.70;73.90;;;;;;7610951;19;20978;-74
2023/10/13 16:51:46;;;;;;;7.93;3.97;;;21.50;75.20;;;;;;7601216;19;20014;-72
2023/10/13 16:54:21;;;;;;;10.55;3.70;;;21.30;76.30;;;;;;7607824;19;20019;-74
2023/10/13 16:56:55;;;;;;;14.05;4.53;;;21.20;76.90;;;;;;7594581;19;20904;-72